sensor_id;sensor_type;location;lat;lon;timestamp;temperature;humidity
21811;DHT22;11067;48.788;9.208;2023-07-29T00:01:42;19.30;99.90
21811;DHT22;11067;48.788;9.208;2023-07-29T00:04:08;19.30;99.90
21811;DHT22;11067;48.788;9.208;2023-07-29T00:06:36;19.20;99.90
21811;DHT22;11067;48.788;9.208;2023-07-29T00:09:02;19.30;99.90
21811;DHT22;11067;48.788;9.208;2023-07-29T00:11:28;19.20;99.90
21811;DHT22;11067;48.788;9.208;2023-07-29T00:13:53;19.20;99.90
21811;DHT22;11067;48.788;9.208;2023-07-29T00:16:20;19.20;99.90
21811;DHT22;11067;48.788;9.208;2023-07-29T00:18:48;19.30;99.90
21811;DHT22;11067;48.788;9.208;2023-07-29T00:21:13;19.20;99.90
21811;DHT22;11067;48.788;9.208;2023-07-29T00:23:39;19.30;99.90
21811;DHT22;11067;48.788;9.208;2023-07-29T00:26:04;19.30;99.90
21811;DHT22;11067;48.788;9.208;2023-07-29T00:28:30;19.30;99.90
21811;DHT22;11067;48.788;9.208;2023-07-29T00:30:56;19.30;99.90
21811;DHT22;11067;48.788;9.208;2023-07-29T00:33:21;19.40;99.90
21811;DHT22;11067;48.788;9.208;2023-07-29T00:35:47;19.40;99.90
21811;DHT22;11067;48.788;9.208;2023-07-29T00:38:13;19.40;99.90
21811;DHT22;11067;48.788;9.208;2023-07-29T00:40:38;19.40;99.90
21811;DHT22;11067;48.788;9.208;2023-07-29T00:43:04;19.40;99.90
21811;DHT22;11067;48.788;9.208;2023-07-29T00:45:30;19.40;99.90
21811;DHT22;11067;48.788;9.208;2023-07-29T00:47:57;19.40;99.90
21811;DHT22;11067;48.788;9.208;2023-07-29T00:50:23;19.30;99.90
21811;DHT22;11067;48.788;9.208;2023-07-29T00:52:49;19.30;99.90
21811;DHT22;11067;48.788;9.208;2023-07-29T00:55:15;19.30;99.90
21811;DHT22;11067;48.788;9.208;2023-07-29T00:57:41;19.20;99.90
21811;DHT22;11067;48.788;9.208;2023-07-29T01:00:08;19.30;99.90
21811;DHT22;11067;48.788;9.208;2023-07-29T01:02:34;19.30;99.90
21811;DHT22;11067;48.788;9.208;2023-07-29T01:05:00;19.30;99.90
21811;DHT22;11067;48.788;9.208;2023-07-29T01:10:22;19.30;99.90
21811;DHT22;11067;48.788;9.208;2023-07-29T01:13:18;19.20;99.90
21811;DHT22;11067;48.788;9.208;2023-07-29T01:16:07;19.20;99.90
21811;DHT22;11067;48.788;9.208;2023-07-29T01:18:36;19.20;99.90
21811;DHT22;11067;48.788;9.208;2023-07-29T01:21:05;19.20;99.90
21811;DHT22;11067;48.788;9.208;2023-07-29T01:23:34;19.20;99.90
21811;DHT22;11067;48.788;9.208;2023-07-29T01:26:00;19.20;99.90
21811;DHT22;11067;48.788;9.208;2023-07-29T01:28:26;19.10;99.90
21811;DHT22;11067;48.788;9.208;2023-07-29T01:31:07;19.10;99.90
21811;DHT22;11067;48.788;9.208;2023-07-29T01:33:58;19.10;99.90
21811;DHT22;11067;48.788;9.208;2023-07-29T01:36:28;19.10;99.90
21811;DHT22;11067;48.788;9.208;2023-07-29T01:38:55;19.10;99.90
21811;DHT22;11067;48.788;9.208;2023-07-29T01:41:22;19.10;99.90
21811;DHT22;11067;48.788;9.208;2023-07-29T01:43:48;19.10;99.90
21811;DHT22;11067;48.788;9.208;2023-07-29T01:46:14;19.10;99.90
21811;DHT22;11067;48.788;9.208;2023-07-29T01:48:40;19.10;99.90
21811;DHT22;11067;48.788;9.208;2023-07-29T01:51:07;19.20;99.90
21811;DHT22;11067;48.788;9.208;2023-07-29T01:53:33;19.20;99.90
21811;DHT22;11067;48.788;9.208;2023-07-29T01:55:58;19.10;99.90
21811;DHT22;11067;48.788;9.208;2023-07-29T01:58:24;19.20;99.90
21811;DHT22;11067;48.788;9.208;2023-07-29T02:00:50;19.20;99.90
21811;DHT22;11067;48.788;9.208;2023-07-29T02:03:15;19.20;99.90
21811;DHT22;11067;48.788;9.208;2023-07-29T02:05:41;19.20;99.90
21811;DHT22;11067;48.788;9.208;2023-07-29T02:08:10;19.20;99.90
21811;DHT22;11067;48.788;9.208;2023-07-29T02:10:36;19.10;99.90
21811;DHT22;11067;48.788;9.208;2023-07-29T02:13:03;19.10;99.90
21811;DHT22;11067;48.788;9.208;2023-07-29T02:15:29;19.20;99.90
21811;DHT22;11067;48.788;9.208;2023-07-29T02:17:54;19.10;99.90
21811;DHT22;11067;48.788;9.208;2023-07-29T02:20:20;19.10;99.90
21811;DHT22;11067;48.788;9.208;2023-07-29T02:22:45;19.10;99.90
21811;DHT22;11067;48.788;9.208;2023-07-29T02:25:11;19.10;99.90
21811;DHT22;11067;48.788;9.208;2023-07-29T02:27:37;19.10;99.90
21811;DHT22;11067;48.788;9.208;2023-07-29T02:30:03;19.00;99.90
21811;DHT22;11067;48.788;9.208;2023-07-29T02:32:28;19.00;99.90
21811;DHT22;11067;48.788;9.208;2023-07-29T02:34:54;18.90;99.90
21811;DHT22;11067;48.788;9.208;2023-07-29T02:37:20;18.90;99.90
21811;DHT22;11067;48.788;9.208;2023-07-29T02:39:46;18.90;99.90
21811;DHT22;11067;48.788;9.208;2023-07-29T02:42:11;18.80;99.90
21811;DHT22;11067;48.788;9.208;2023-07-29T02:44:37;18.70;99.90
21811;DHT22;11067;48.788;9.208;2023-07-29T02:47:03;18.80;99.90
21811;DHT22;11067;48.788;9.208;2023-07-29T02:49:28;18.80;99.90
21811;DHT22;11067;48.788;9.208;2023-07-29T02:51:54;18.80;99.90
21811;DHT22;11067;48.788;9.208;2023-07-29T02:54:20;18.70;99.90
21811;DHT22;11067;48.788;9.208;2023-07-29T02:56:45;18.80;99.90
21811;DHT22;11067;48.788;9.208;2023-07-29T02:59:11;18.80;99.90
21811;DHT22;11067;48.788;9.208;2023-07-29T03:01:36;18.80;99.90
21811;DHT22;11067;48.788;9.208;2023-07-29T03:04:02;18.80;99.90
21811;DHT22;11067;48.788;9.208;2023-07-29T03:06:27;18.70;99.90
21811;DHT22;11067;48.788;9.208;2023-07-29T03:08:53;18.80;99.90
21811;DHT22;11067;48.788;9.208;2023-07-29T03:11:18;18.80;99.90
21811;DHT22;11067;48.788;9.208;2023-07-29T03:13:44;18.70;99.90
21811;DHT22;11067;48.788;9.208;2023-07-29T03:16:12;18.70;99.90
21811;DHT22;11067;48.788;9.208;2023-07-29T03:18:38;18.70;99.90
21811;DHT22;11067;48.788;9.208;2023-07-29T03:21:04;18.70;99.90
21811;DHT22;11067;48.788;9.208;2023-07-29T03:23:30;18.70;99.90
21811;DHT22;11067;48.788;9.208;2023-07-29T03:25:57;18.70;99.90
21811;DHT22;11067;48.788;9.208;2023-07-29T03:28:32;18.70;99.90
21811;DHT22;11067;48.788;9.208;2023-07-29T03:30:57;18.70;99.90
21811;DHT22;11067;48.788;9.208;2023-07-29T03:33:25;18.80;99.90
21811;DHT22;11067;48.788;9.208;2023-07-29T03:35:50;18.70;99.90
21811;DHT22;11067;48.788;9.208;2023-07-29T03:38:16;18.70;99.90
21811;DHT22;11067;48.788;9.208;2023-07-29T03:40:42;18.70;99.90
21811;DHT22;11067;48.788;9.208;2023-07-29T03:43:08;18.70;99.90
21811;DHT22;11067;48.788;9.208;2023-07-29T03:45:34;18.70;99.90
21811;DHT22;11067;48.788;9.208;2023-07-29T03:48:00;18.80;99.90
21811;DHT22;11067;48.788;9.208;2023-07-29T03:50:27;18.80;99.90
21811;DHT22;11067;48.788;9.208;2023-07-29T03:52:53;18.80;99.90
21811;DHT22;11067;48.788;9.208;2023-07-29T03:55:19;18.80;99.90
21811;DHT22;11067;48.788;9.208;2023-07-29T03:57:44;18.90;99.90
21811;DHT22;11067;48.788;9.208;2023-07-29T04:00:10;18.90;99.90
21811;DHT22;11067;48.788;9.208;2023-07-29T04:02:36;18.90;99.90
21811;DHT22;11067;48.788;9.208;2023-07-29T04:05:05;18.90;99.90
21811;DHT22;11067;48.788;9.208;2023-07-29T04:07:33;18.90;99.90
21811;DHT22;11067;48.788;9.208;2023-07-29T04:09:59;19.00;99.90
21811;DHT22;11067;48.788;9.208;2023-07-29T04:12:25;19.00;99.90
21811;DHT22;11067;48.788;9.208;2023-07-29T04:14:50;18.90;99.90
21811;DHT22;11067;48.788;9.208;2023-07-29T04:17:16;18.90;99.90
21811;DHT22;11067;48.788;9.208;2023-07-29T04:19:41;18.90;99.90
21811;DHT22;11067;48.788;9.208;2023-07-29T04:22:07;18.80;99.90
21811;DHT22;11067;48.788;9.208;2023-07-29T04:24:32;18.80;99.90
21811;DHT22;11067;48.788;9.208;2023-07-29T04:26:58;18.80;99.90
21811;DHT22;11067;48.788;9.208;2023-07-29T04:29:23;18.80;99.90
21811;DHT22;11067;48.788;9.208;2023-07-29T04:31:50;18.90;99.90
21811;DHT22;11067;48.788;9.208;2023-07-29T04:34:17;18.90;99.90
21811;DHT22;11067;48.788;9.208;2023-07-29T04:36:42;18.90;99.90
21811;DHT22;11067;48.788;9.208;2023-07-29T04:39:08;18.90;99.90
21811;DHT22;11067;48.788;9.208;2023-07-29T04:41:34;19.00;99.90
21811;DHT22;11067;48.788;9.208;2023-07-29T04:44:00;19.00;99.90
21811;DHT22;11067;48.788;9.208;2023-07-29T04:46:25;18.90;99.90
21811;DHT22;11067;48.788;9.208;2023-07-29T04:48:50;19.00;99.90
21811;DHT22;11067;48.788;9.208;2023-07-29T04:51:16;19.00;99.90
21811;DHT22;11067;48.788;9.208;2023-07-29T04:53:41;19.10;99.90
21811;DHT22;11067;48.788;9.208;2023-07-29T04:56:07;19.30;99.90
21811;DHT22;11067;48.788;9.208;2023-07-29T04:58:33;19.30;99.90
21811;DHT22;11067;48.788;9.208;2023-07-29T05:01:01;19.30;99.90
21811;DHT22;11067;48.788;9.208;2023-07-29T05:03:38;19.40;99.90
21811;DHT22;11067;48.788;9.208;2023-07-29T05:06:05;19.30;99.90
21811;DHT22;11067;48.788;9.208;2023-07-29T05:08:30;19.40;99.90
21811;DHT22;11067;48.788;9.208;2023-07-29T05:10:56;19.40;99.90
21811;DHT22;11067;48.788;9.208;2023-07-29T05:13:22;19.40;99.90
21811;DHT22;11067;48.788;9.208;2023-07-29T05:15:48;19.30;99.90
21811;DHT22;11067;48.788;9.208;2023-07-29T05:18:15;19.20;99.90
21811;DHT22;11067;48.788;9.208;2023-07-29T05:20:41;19.20;99.90
21811;DHT22;11067;48.788;9.208;2023-07-29T05:23:06;19.30;99.90
21811;DHT22;11067;48.788;9.208;2023-07-29T05:25:32;19.30;99.90
21811;DHT22;11067;48.788;9.208;2023-07-29T05:28:00;19.30;99.90
21811;DHT22;11067;48.788;9.208;2023-07-29T05:30:25;19.20;99.90
21811;DHT22;11067;48.788;9.208;2023-07-29T05:32:52;19.30;99.90
21811;DHT22;11067;48.788;9.208;2023-07-29T05:35:17;19.30;99.90
21811;DHT22;11067;48.788;9.208;2023-07-29T05:37:43;19.40;99.90
21811;DHT22;11067;48.788;9.208;2023-07-29T05:40:09;19.40;99.90
21811;DHT22;11067;48.788;9.208;2023-07-29T05:42:34;19.50;99.90
21811;DHT22;11067;48.788;9.208;2023-07-29T05:45:00;19.50;99.90
21811;DHT22;11067;48.788;9.208;2023-07-29T05:47:26;19.50;99.90
21811;DHT22;11067;48.788;9.208;2023-07-29T05:49:52;19.50;99.90
21811;DHT22;11067;48.788;9.208;2023-07-29T05:52:18;19.50;99.90
21811;DHT22;11067;48.788;9.208;2023-07-29T05:54:44;19.70;99.90
21811;DHT22;11067;48.788;9.208;2023-07-29T05:57:11;19.80;99.90
21811;DHT22;11067;48.788;9.208;2023-07-29T05:59:36;19.90;99.90
21811;DHT22;11067;48.788;9.208;2023-07-29T06:02:02;19.90;99.90
21811;DHT22;11067;48.788;9.208;2023-07-29T06:04:28;20.00;99.90
21811;DHT22;11067;48.788;9.208;2023-07-29T06:06:54;20.00;99.90
21811;DHT22;11067;48.788;9.208;2023-07-29T06:09:21;20.20;99.90
21811;DHT22;11067;48.788;9.208;2023-07-29T06:11:46;20.30;99.90
21811;DHT22;11067;48.788;9.208;2023-07-29T06:14:12;20.20;99.90
21811;DHT22;11067;48.788;9.208;2023-07-29T06:16:37;20.40;99.90
21811;DHT22;11067;48.788;9.208;2023-07-29T06:19:03;20.50;99.90
21811;DHT22;11067;48.788;9.208;2023-07-29T06:21:29;20.10;99.90
21811;DHT22;11067;48.788;9.208;2023-07-29T06:23:54;20.00;99.90
21811;DHT22;11067;48.788;9.208;2023-07-29T06:26:20;20.00;99.90
21811;DHT22;11067;48.788;9.208;2023-07-29T06:28:45;19.90;99.90
21811;DHT22;11067;48.788;9.208;2023-07-29T06:31:11;20.00;99.90
21811;DHT22;11067;48.788;9.208;2023-07-29T06:33:36;20.00;99.90
21811;DHT22;11067;48.788;9.208;2023-07-29T06:36:02;19.90;99.90
21811;DHT22;11067;48.788;9.208;2023-07-29T06:38:27;19.90;99.90
21811;DHT22;11067;48.788;9.208;2023-07-29T06:40:53;19.70;99.90
21811;DHT22;11067;48.788;9.208;2023-07-29T06:43:18;19.60;99.90
21811;DHT22;11067;48.788;9.208;2023-07-29T06:45:44;19.50;99.90
21811;DHT22;11067;48.788;9.208;2023-07-29T06:48:09;19.40;99.90
21811;DHT22;11067;48.788;9.208;2023-07-29T06:50:35;19.40;99.90
21811;DHT22;11067;48.788;9.208;2023-07-29T06:53:00;19.50;99.90
21811;DHT22;11067;48.788;9.208;2023-07-29T06:55:26;19.50;99.90
21811;DHT22;11067;48.788;9.208;2023-07-29T06:57:51;19.60;99.90
21811;DHT22;11067;48.788;9.208;2023-07-29T07:00:17;19.60;99.90
21811;DHT22;11067;48.788;9.208;2023-07-29T07:02:43;19.60;99.90
21811;DHT22;11067;48.788;9.208;2023-07-29T07:05:08;19.60;99.90
21811;DHT22;11067;48.788;9.208;2023-07-29T07:07:34;19.70;99.90
21811;DHT22;11067;48.788;9.208;2023-07-29T07:10:00;19.80;99.90
21811;DHT22;11067;48.788;9.208;2023-07-29T07:12:25;19.80;99.90
21811;DHT22;11067;48.788;9.208;2023-07-29T07:14:51;19.90;99.90
21811;DHT22;11067;48.788;9.208;2023-07-29T07:17:16;19.90;99.90
21811;DHT22;11067;48.788;9.208;2023-07-29T07:19:43;20.00;99.90
21811;DHT22;11067;48.788;9.208;2023-07-29T07:22:08;20.10;99.90
21811;DHT22;11067;48.788;9.208;2023-07-29T07:24:34;20.20;99.90
21811;DHT22;11067;48.788;9.208;2023-07-29T07:26:59;20.10;99.90
21811;DHT22;11067;48.788;9.208;2023-07-29T07:29:25;20.20;99.90
21811;DHT22;11067;48.788;9.208;2023-07-29T07:31:52;20.10;99.90
21811;DHT22;11067;48.788;9.208;2023-07-29T07:34:19;20.10;99.90
21811;DHT22;11067;48.788;9.208;2023-07-29T07:36:44;20.10;99.90
21811;DHT22;11067;48.788;9.208;2023-07-29T07:39:10;20.20;99.90
21811;DHT22;11067;48.788;9.208;2023-07-29T07:41:35;20.10;99.90
21811;DHT22;11067;48.788;9.208;2023-07-29T07:44:01;20.10;99.90
21811;DHT22;11067;48.788;9.208;2023-07-29T07:46:26;20.30;99.90
21811;DHT22;11067;48.788;9.208;2023-07-29T07:48:52;20.40;99.90
21811;DHT22;11067;48.788;9.208;2023-07-29T07:51:17;20.40;99.90
21811;DHT22;11067;48.788;9.208;2023-07-29T07:53:43;20.50;99.90
21811;DHT22;11067;48.788;9.208;2023-07-29T07:56:08;20.50;99.90
21811;DHT22;11067;48.788;9.208;2023-07-29T07:58:34;20.50;99.90
21811;DHT22;11067;48.788;9.208;2023-07-29T08:01:03;20.50;99.90
21811;DHT22;11067;48.788;9.208;2023-07-29T08:03:29;20.40;99.90
21811;DHT22;11067;48.788;9.208;2023-07-29T08:05:55;20.40;99.90
21811;DHT22;11067;48.788;9.208;2023-07-29T08:08:20;20.50;99.90
21811;DHT22;11067;48.788;9.208;2023-07-29T08:10:46;20.60;99.90
21811;DHT22;11067;48.788;9.208;2023-07-29T08:13:11;20.70;99.90
21811;DHT22;11067;48.788;9.208;2023-07-29T08:15:37;20.70;99.90
21811;DHT22;11067;48.788;9.208;2023-07-29T08:18:02;20.80;99.90
21811;DHT22;11067;48.788;9.208;2023-07-29T08:20:28;21.00;99.90
21811;DHT22;11067;48.788;9.208;2023-07-29T08:22:54;21.10;99.90
21811;DHT22;11067;48.788;9.208;2023-07-29T08:25:19;21.20;99.90
21811;DHT22;11067;48.788;9.208;2023-07-29T08:27:45;21.30;99.90
21811;DHT22;11067;48.788;9.208;2023-07-29T08:30:10;21.40;99.90
21811;DHT22;11067;48.788;9.208;2023-07-29T08:32:36;21.40;99.90
21811;DHT22;11067;48.788;9.208;2023-07-29T08:35:01;21.60;99.90
21811;DHT22;11067;48.788;9.208;2023-07-29T08:37:27;21.80;99.90
21811;DHT22;11067;48.788;9.208;2023-07-29T08:39:53;21.60;99.90
21811;DHT22;11067;48.788;9.208;2023-07-29T08:42:19;21.80;99.90
21811;DHT22;11067;48.788;9.208;2023-07-29T08:44:49;21.80;99.90
21811;DHT22;11067;48.788;9.208;2023-07-29T08:47:15;21.90;99.90
21811;DHT22;11067;48.788;9.208;2023-07-29T08:49:41;22.00;99.90
21811;DHT22;11067;48.788;9.208;2023-07-29T08:52:07;22.20;99.90
21811;DHT22;11067;48.788;9.208;2023-07-29T08:54:34;22.10;99.90
21811;DHT22;11067;48.788;9.208;2023-07-29T08:57:00;22.20;99.90
21811;DHT22;11067;48.788;9.208;2023-07-29T08:59:26;22.50;99.90
21811;DHT22;11067;48.788;9.208;2023-07-29T09:01:54;22.70;99.90
21811;DHT22;11067;48.788;9.208;2023-07-29T09:04:22;23.00;99.90
21811;DHT22;11067;48.788;9.208;2023-07-29T09:06:50;23.10;99.90
21811;DHT22;11067;48.788;9.208;2023-07-29T09:09:15;23.10;99.90
21811;DHT22;11067;48.788;9.208;2023-07-29T09:11:41;23.70;99.90
21811;DHT22;11067;48.788;9.208;2023-07-29T09:14:07;24.00;99.90
21811;DHT22;11067;48.788;9.208;2023-07-29T09:16:33;24.00;99.90
21811;DHT22;11067;48.788;9.208;2023-07-29T09:19:01;23.90;99.90
21811;DHT22;11067;48.788;9.208;2023-07-29T09:21:28;24.00;99.90
21811;DHT22;11067;48.788;9.208;2023-07-29T09:23:54;23.40;99.90
21811;DHT22;11067;48.788;9.208;2023-07-29T09:26:24;23.80;99.90
21811;DHT22;11067;48.788;9.208;2023-07-29T09:28:52;24.10;99.90
21811;DHT22;11067;48.788;9.208;2023-07-29T09:31:20;24.10;99.90
21811;DHT22;11067;48.788;9.208;2023-07-29T09:33:46;24.20;99.90
21811;DHT22;11067;48.788;9.208;2023-07-29T09:36:11;24.10;99.90
21811;DHT22;11067;48.788;9.208;2023-07-29T09:38:37;23.90;99.90
21811;DHT22;11067;48.788;9.208;2023-07-29T09:41:03;24.00;99.90
21811;DHT22;11067;48.788;9.208;2023-07-29T09:43:31;24.00;99.90
21811;DHT22;11067;48.788;9.208;2023-07-29T09:46:04;24.60;99.90
21811;DHT22;11067;48.788;9.208;2023-07-29T09:48:36;24.70;99.90
21811;DHT22;11067;48.788;9.208;2023-07-29T09:51:13;24.60;99.90
21811;DHT22;11067;48.788;9.208;2023-07-29T09:53:45;24.90;99.90
21811;DHT22;11067;48.788;9.208;2023-07-29T09:56:12;25.00;99.90
21811;DHT22;11067;48.788;9.208;2023-07-29T09:58:38;24.30;99.90
21811;DHT22;11067;48.788;9.208;2023-07-29T10:01:07;24.40;99.90
21811;DHT22;11067;48.788;9.208;2023-07-29T10:03:36;24.40;99.90
21811;DHT22;11067;48.788;9.208;2023-07-29T10:06:03;24.80;99.90
21811;DHT22;11067;48.788;9.208;2023-07-29T10:08:32;25.20;99.90
21811;DHT22;11067;48.788;9.208;2023-07-29T10:11:01;25.20;99.90
21811;DHT22;11067;48.788;9.208;2023-07-29T10:13:26;25.50;99.90
21811;DHT22;11067;48.788;9.208;2023-07-29T10:15:54;25.60;99.90
21811;DHT22;11067;48.788;9.208;2023-07-29T10:18:22;25.50;99.90
21811;DHT22;11067;48.788;9.208;2023-07-29T10:20:50;25.20;99.90
21811;DHT22;11067;48.788;9.208;2023-07-29T10:23:18;25.00;99.90
21811;DHT22;11067;48.788;9.208;2023-07-29T10:25:47;25.00;99.90
21811;DHT22;11067;48.788;9.208;2023-07-29T10:28:15;24.80;99.90
21811;DHT22;11067;48.788;9.208;2023-07-29T10:30:44;24.70;99.90
21811;DHT22;11067;48.788;9.208;2023-07-29T10:33:10;24.50;99.90
21811;DHT22;11067;48.788;9.208;2023-07-29T10:35:36;24.30;99.90
21811;DHT22;11067;48.788;9.208;2023-07-29T10:38:03;23.90;99.90
21811;DHT22;11067;48.788;9.208;2023-07-29T10:40:50;23.00;99.90
21811;DHT22;11067;48.788;9.208;2023-07-29T10:43:27;22.70;99.90
21811;DHT22;11067;48.788;9.208;2023-07-29T10:45:55;22.40;99.90
21811;DHT22;11067;48.788;9.208;2023-07-29T10:53:53;22.40;99.90
21811;DHT22;11067;48.788;9.208;2023-07-29T10:56:33;22.40;99.90
21811;DHT22;11067;48.788;9.208;2023-07-29T11:01:34;22.70;99.90
21811;DHT22;11067;48.788;9.208;2023-07-29T11:04:22;23.10;99.90
21811;DHT22;11067;48.788;9.208;2023-07-29T11:12:50;23.60;99.90
21811;DHT22;11067;48.788;9.208;2023-07-29T11:15:27;24.00;99.90
21811;DHT22;11067;48.788;9.208;2023-07-29T11:20:30;25.10;99.90
21811;DHT22;11067;48.788;9.208;2023-07-29T11:22:57;24.80;99.90
21811;DHT22;11067;48.788;9.208;2023-07-29T11:25:24;25.00;99.90
21811;DHT22;11067;48.788;9.208;2023-07-29T11:27:55;24.80;99.90
21811;DHT22;11067;48.788;9.208;2023-07-29T11:30:21;24.70;99.90
21811;DHT22;11067;48.788;9.208;2023-07-29T11:32:48;25.10;99.90
21811;DHT22;11067;48.788;9.208;2023-07-29T11:35:16;25.20;99.90
21811;DHT22;11067;48.788;9.208;2023-07-29T11:37:45;24.90;99.90
21811;DHT22;11067;48.788;9.208;2023-07-29T11:40:14;24.90;99.90
21811;DHT22;11067;48.788;9.208;2023-07-29T11:42:40;24.90;99.90
21811;DHT22;11067;48.788;9.208;2023-07-29T11:45:06;24.90;99.90
21811;DHT22;11067;48.788;9.208;2023-07-29T11:47:33;24.90;99.90
21811;DHT22;11067;48.788;9.208;2023-07-29T11:50:07;24.70;99.90
21811;DHT22;11067;48.788;9.208;2023-07-29T11:52:35;24.60;99.90
21811;DHT22;11067;48.788;9.208;2023-07-29T11:55:02;25.00;99.90
21811;DHT22;11067;48.788;9.208;2023-07-29T11:57:38;24.80;99.90
21811;DHT22;11067;48.788;9.208;2023-07-29T12:00:08;25.00;99.90
21811;DHT22;11067;48.788;9.208;2023-07-29T12:02:37;25.30;99.90
21811;DHT22;11067;48.788;9.208;2023-07-29T12:05:04;25.40;99.90
21811;DHT22;11067;48.788;9.208;2023-07-29T12:07:31;25.60;99.90
21811;DHT22;11067;48.788;9.208;2023-07-29T12:09:59;25.60;99.90
21811;DHT22;11067;48.788;9.208;2023-07-29T12:12:24;25.80;99.90
21811;DHT22;11067;48.788;9.208;2023-07-29T12:14:50;26.20;99.90
21811;DHT22;11067;48.788;9.208;2023-07-29T12:17:15;26.10;99.90
21811;DHT22;11067;48.788;9.208;2023-07-29T12:19:42;26.20;99.90
21811;DHT22;11067;48.788;9.208;2023-07-29T12:22:10;25.60;99.90
21811;DHT22;11067;48.788;9.208;2023-07-29T12:24:37;25.40;99.90
21811;DHT22;11067;48.788;9.208;2023-07-29T12:27:03;25.40;99.90
21811;DHT22;11067;48.788;9.208;2023-07-29T12:29:29;25.40;99.90
21811;DHT22;11067;48.788;9.208;2023-07-29T12:32:00;25.70;99.90
21811;DHT22;11067;48.788;9.208;2023-07-29T12:34:27;26.30;99.90
21811;DHT22;11067;48.788;9.208;2023-07-29T12:36:57;26.80;99.90
21811;DHT22;11067;48.788;9.208;2023-07-29T12:44:20;27.00;99.90
21811;DHT22;11067;48.788;9.208;2023-07-29T12:46:45;27.80;99.90
21811;DHT22;11067;48.788;9.208;2023-07-29T12:49:11;28.10;99.90
21811;DHT22;11067;48.788;9.208;2023-07-29T12:51:37;27.20;99.90
21811;DHT22;11067;48.788;9.208;2023-07-29T12:54:03;27.40;99.90
21811;DHT22;11067;48.788;9.208;2023-07-29T12:56:30;27.20;99.90
21811;DHT22;11067;48.788;9.208;2023-07-29T12:58:57;27.40;99.90
21811;DHT22;11067;48.788;9.208;2023-07-29T13:01:23;26.90;99.90
21811;DHT22;11067;48.788;9.208;2023-07-29T13:03:49;27.00;99.90
21811;DHT22;11067;48.788;9.208;2023-07-29T13:06:15;26.90;99.90
21811;DHT22;11067;48.788;9.208;2023-07-29T13:08:41;27.00;99.90
21811;DHT22;11067;48.788;9.208;2023-07-29T13:11:07;26.90;99.90
21811;DHT22;11067;48.788;9.208;2023-07-29T13:13:33;27.00;99.90
21811;DHT22;11067;48.788;9.208;2023-07-29T13:15:58;27.10;99.90
21811;DHT22;11067;48.788;9.208;2023-07-29T13:18:24;27.10;99.90
21811;DHT22;11067;48.788;9.208;2023-07-29T13:20:49;27.40;99.90
21811;DHT22;11067;48.788;9.208;2023-07-29T13:23:15;27.50;99.90
21811;DHT22;11067;48.788;9.208;2023-07-29T13:25:41;27.40;99.90
21811;DHT22;11067;48.788;9.208;2023-07-29T13:28:08;27.40;99.90
21811;DHT22;11067;48.788;9.208;2023-07-29T13:30:33;27.50;99.90
21811;DHT22;11067;48.788;9.208;2023-07-29T13:32:59;27.50;99.90
21811;DHT22;11067;48.788;9.208;2023-07-29T13:35:25;27.60;99.90
21811;DHT22;11067;48.788;9.208;2023-07-29T13:37:50;27.50;99.90
21811;DHT22;11067;48.788;9.208;2023-07-29T13:40:16;27.10;99.90
21811;DHT22;11067;48.788;9.208;2023-07-29T13:42:41;27.20;99.90
21811;DHT22;11067;48.788;9.208;2023-07-29T13:45:07;27.50;99.90
21811;DHT22;11067;48.788;9.208;2023-07-29T13:47:33;27.70;99.90
21811;DHT22;11067;48.788;9.208;2023-07-29T13:50:00;27.60;99.90
21811;DHT22;11067;48.788;9.208;2023-07-29T13:52:25;27.50;99.90
21811;DHT22;11067;48.788;9.208;2023-07-29T13:54:51;27.20;99.90
21811;DHT22;11067;48.788;9.208;2023-07-29T13:57:16;27.20;99.90
21811;DHT22;11067;48.788;9.208;2023-07-29T13:59:42;27.10;99.90
21811;DHT22;11067;48.788;9.208;2023-07-29T14:02:07;27.00;99.90
21811;DHT22;11067;48.788;9.208;2023-07-29T14:04:34;27.20;99.90
21811;DHT22;11067;48.788;9.208;2023-07-29T14:06:59;27.20;99.90
21811;DHT22;11067;48.788;9.208;2023-07-29T14:09:26;27.30;99.90
21811;DHT22;11067;48.788;9.208;2023-07-29T14:11:52;27.50;99.90
21811;DHT22;11067;48.788;9.208;2023-07-29T14:14:17;27.30;99.90
21811;DHT22;11067;48.788;9.208;2023-07-29T14:16:43;27.10;99.90
21811;DHT22;11067;48.788;9.208;2023-07-29T14:19:08;27.20;99.90
21811;DHT22;11067;48.788;9.208;2023-07-29T14:21:34;27.20;99.90
21811;DHT22;11067;48.788;9.208;2023-07-29T14:23:59;27.10;99.90
21811;DHT22;11067;48.788;9.208;2023-07-29T14:26:25;27.30;99.90
21811;DHT22;11067;48.788;9.208;2023-07-29T14:28:50;27.40;99.90
21811;DHT22;11067;48.788;9.208;2023-07-29T14:31:17;27.60;99.90
21811;DHT22;11067;48.788;9.208;2023-07-29T14:33:45;27.40;99.90
21811;DHT22;11067;48.788;9.208;2023-07-29T14:36:11;27.20;99.90
21811;DHT22;11067;48.788;9.208;2023-07-29T14:38:36;26.90;99.90
21811;DHT22;11067;48.788;9.208;2023-07-29T14:41:03;27.00;99.90
21811;DHT22;11067;48.788;9.208;2023-07-29T14:43:29;26.80;99.90
21811;DHT22;11067;48.788;9.208;2023-07-29T14:45:55;26.70;99.90
21811;DHT22;11067;48.788;9.208;2023-07-29T14:48:20;26.80;99.90
21811;DHT22;11067;48.788;9.208;2023-07-29T14:50:46;26.70;99.90
21811;DHT22;11067;48.788;9.208;2023-07-29T14:53:12;26.70;99.90
21811;DHT22;11067;48.788;9.208;2023-07-29T14:55:37;26.50;99.90
21811;DHT22;11067;48.788;9.208;2023-07-29T14:58:03;26.30;99.90
21811;DHT22;11067;48.788;9.208;2023-07-29T15:00:29;26.30;99.90
21811;DHT22;11067;48.788;9.208;2023-07-29T15:02:54;26.30;99.90
21811;DHT22;11067;48.788;9.208;2023-07-29T15:05:20;26.30;99.90
21811;DHT22;11067;48.788;9.208;2023-07-29T15:07:46;26.50;99.90
21811;DHT22;11067;48.788;9.208;2023-07-29T15:10:14;26.60;99.90
21811;DHT22;11067;48.788;9.208;2023-07-29T15:12:40;26.30;99.90
21811;DHT22;11067;48.788;9.208;2023-07-29T15:15:06;26.30;99.90
21811;DHT22;11067;48.788;9.208;2023-07-29T15:17:32;26.40;99.90
21811;DHT22;11067;48.788;9.208;2023-07-29T15:19:57;26.50;99.90
21811;DHT22;11067;48.788;9.208;2023-07-29T15:22:23;26.60;99.90
21811;DHT22;11067;48.788;9.208;2023-07-29T15:24:48;26.70;99.90
21811;DHT22;11067;48.788;9.208;2023-07-29T15:27:14;26.70;99.90
21811;DHT22;11067;48.788;9.208;2023-07-29T15:29:39;26.60;99.90
21811;DHT22;11067;48.788;9.208;2023-07-29T15:32:05;26.60;99.90
21811;DHT22;11067;48.788;9.208;2023-07-29T15:34:31;26.70;99.90
21811;DHT22;11067;48.788;9.208;2023-07-29T15:36:57;26.60;99.90
21811;DHT22;11067;48.788;9.208;2023-07-29T15:39:23;26.90;99.90
21811;DHT22;11067;48.788;9.208;2023-07-29T15:41:49;27.10;99.90
21811;DHT22;11067;48.788;9.208;2023-07-29T15:44:15;27.20;99.90
21811;DHT22;11067;48.788;9.208;2023-07-29T15:46:40;27.10;99.90
21811;DHT22;11067;48.788;9.208;2023-07-29T15:49:07;27.30;99.90
21811;DHT22;11067;48.788;9.208;2023-07-29T15:51:32;27.00;99.90